createdAt,value
2018-03-23T00:00:05.699Z,1000.67
2018-03-23T00:00:46.209Z,1000.68
2018-03-23T00:01:26.750Z,1000.64
2018-03-23T00:02:07.268Z,1000.65
2018-03-23T00:02:47.769Z,1000.69
2018-03-23T00:03:28.280Z,1000.65
2018-03-23T00:04:08.810Z,1000.67
2018-03-23T00:04:49.348Z,1000.65
2018-03-23T00:05:29.848Z,1000.61
2018-03-23T00:06:10.386Z,1000.65
2018-03-23T00:06:50.877Z,1000.67
2018-03-23T00:07:31.394Z,1000.59
2018-03-23T00:08:11.918Z,1000.59
2018-03-23T00:08:52.430Z,1000.58
2018-03-23T00:09:32.967Z,1000.59
2018-03-23T00:10:13.482Z,1000.59
2018-03-23T00:10:53.998Z,1000.58
2018-03-23T00:11:34.513Z,1000.55
2018-03-23T00:12:15.024Z,1000.6
2018-03-23T00:12:55.565Z,1000.61
2018-03-23T00:13:36.101Z,1000.55
2018-03-23T00:14:16.579Z,1000.63
2018-03-23T00:14:57.092Z,1000.56
2018-03-23T00:15:37.594Z,1000.58
2018-03-23T00:16:18.158Z,1000.51
2018-03-23T00:16:58.690Z,1000.53
2018-03-23T00:17:39.197Z,1000.55
2018-03-23T00:18:19.711Z,1000.48
2018-03-23T00:19:00.222Z,1000.52
2018-03-23T00:19:40.742Z,1000.51
2018-03-23T00:20:21.261Z,1000.46
2018-03-23T00:21:01.764Z,1000.43
2018-03-23T00:21:42.279Z,1000.39
2018-03-23T00:22:22.798Z,1000.44
2018-03-23T00:23:03.320Z,1000.39
2018-03-23T00:23:43.833Z,1000.4
2018-03-23T00:24:24.351Z,1000.41
2018-03-23T00:25:04.861Z,1000.36
2018-03-23T00:25:45.377Z,1000.4
2018-03-23T00:26:25.877Z,1000.37
2018-03-23T00:27:06.394Z,1000.36
2018-03-23T00:27:46.907Z,1000.32
2018-03-23T00:28:27.406Z,1000.28
2018-03-23T00:29:07.918Z,1000.32
2018-03-23T00:29:48.463Z,1000.31
2018-03-23T00:30:28.961Z,1000.29
2018-03-23T00:31:09.494Z,1000.27
2018-03-23T00:31:50.007Z,1000.33
2018-03-23T00:32:30.534Z,1000.31
2018-03-23T00:33:11.046Z,1000.33
2018-03-23T00:33:51.554Z,1000.29
2018-03-23T00:34:32.075Z,1000.3
2018-03-23T00:35:12.583Z,1000.26
2018-03-23T00:35:53.091Z,1000.27
2018-03-23T00:36:33.643Z,1000.29
2018-03-23T00:37:14.132Z,1000.28
2018-03-23T00:37:54.645Z,1000.22
2018-03-23T00:38:35.160Z,1000.19
2018-03-23T00:39:15.677Z,1000.21
2018-03-23T00:39:56.183Z,1000.24
2018-03-23T00:40:36.787Z,1000.23
2018-03-23T00:41:17.396Z,1000.17
2018-03-23T00:41:57.975Z,1000.19
2018-03-23T00:42:38.501Z,1000.13
2018-03-23T00:43:19.029Z,1000.13
2018-03-23T00:43:59.528Z,1000.11
2018-03-23T00:44:40.038Z,1000.09
2018-03-23T00:45:20.549Z,1000.1
2018-03-23T00:46:01.051Z,1000.12
2018-03-23T00:46:41.572Z,1000.11
2018-03-23T00:47:22.086Z,1000.11
2018-03-23T00:48:02.604Z,1000.12
2018-03-23T00:48:43.147Z,1000.11
2018-03-23T00:49:23.654Z,1000.11
2018-03-23T00:50:04.164Z,1000.08
2018-03-23T00:50:44.665Z,1000.08
2018-03-23T00:51:25.188Z,1000.08
2018-03-23T00:52:05.709Z,1000.02
2018-03-23T00:52:46.222Z,1000.08
2018-03-23T00:53:26.745Z,1000.08
2018-03-23T00:54:07.263Z,1000.09
2018-03-23T00:54:47.781Z,1000.05
2018-03-23T00:55:28.390Z,1000.07
2018-03-23T00:56:08.911Z,1000.08
2018-03-23T00:56:49.451Z,1000.09
2018-03-23T00:57:29.969Z,1000.05
2018-03-23T00:58:10.472Z,1000.06
2018-03-23T00:58:51.003Z,1000.09
2018-03-23T00:59:31.555Z,1000.05
2018-03-23T01:00:12.036Z,999.99
2018-03-23T01:00:52.547Z,1000.07
2018-03-23T01:01:33.056Z,1000
2018-03-23T01:02:13.559Z,1000.02
2018-03-23T01:02:54.088Z,1000.03
2018-03-23T01:03:34.605Z,1000.04
2018-03-23T01:04:15.106Z,1000.03
2018-03-23T01:04:55.651Z,1000.05
2018-03-23T01:05:36.165Z,1000.07
2018-03-23T01:06:16.670Z,1000.05
2018-03-23T01:06:57.177Z,1000.05
2018-03-23T01:07:37.687Z,1000.05
2018-03-23T01:08:18.212Z,1000.04
2018-03-23T01:08:58.733Z,999.98
2018-03-23T01:09:39.257Z,1000.02
2018-03-23T01:10:19.762Z,1000.01
2018-03-23T01:11:00.269Z,1000
2018-03-23T01:11:40.806Z,999.99
2018-03-23T01:12:21.310Z,999.95
2018-03-23T01:13:01.810Z,999.97
2018-03-23T01:13:42.331Z,999.96
2018-03-23T01:14:22.839Z,999.97
2018-03-23T01:15:03.343Z,999.93
2018-03-23T01:15:43.865Z,999.93
2018-03-23T01:16:24.406Z,999.97
2018-03-23T01:17:04.918Z,999.93
2018-03-23T01:17:45.433Z,999.92
2018-03-23T01:18:25.956Z,999.9
2018-03-23T01:19:06.470Z,999.94
2018-03-23T01:19:46.984Z,999.92
2018-03-23T01:20:27.496Z,999.87
2018-03-23T01:21:08.011Z,999.89
2018-03-23T01:21:48.545Z,999.87
2018-03-23T01:22:29.031Z,999.91
2018-03-23T01:23:09.549Z,999.89
2018-03-23T01:23:50.079Z,999.87
2018-03-23T01:24:30.601Z,999.94
2018-03-23T01:25:11.103Z,999.88
2018-03-23T01:25:51.613Z,999.87
2018-03-23T01:26:32.130Z,999.84
2018-03-23T01:27:12.650Z,999.87
2018-03-23T01:27:53.175Z,999.82
2018-03-23T01:28:33.689Z,999.8
2018-03-23T01:29:14.235Z,999.77
2018-03-23T01:29:54.736Z,999.84
2018-03-23T01:30:35.241Z,999.83
2018-03-23T01:31:15.770Z,999.75
2018-03-23T01:31:56.274Z,999.73
2018-03-23T01:32:36.785Z,999.75
2018-03-23T01:33:17.294Z,999.75
2018-03-23T01:33:57.820Z,999.73
2018-03-23T01:34:38.329Z,999.76
2018-03-23T01:35:18.848Z,999.75
2018-03-23T01:35:59.356Z,999.77
2018-03-23T01:36:39.878Z,999.78
2018-03-23T01:37:20.393Z,999.78
2018-03-23T01:38:00.908Z,999.76
2018-03-23T01:38:41.431Z,999.73
2018-03-23T01:39:21.933Z,999.75
2018-03-23T01:40:02.448Z,999.75
2018-03-23T01:40:42.967Z,999.73
2018-03-23T01:41:23.479Z,999.77
2018-03-23T01:42:04.004Z,999.79
2018-03-23T01:42:44.527Z,999.74
2018-03-23T01:43:25.056Z,999.72
2018-03-23T01:44:05.568Z,999.74
2018-03-23T01:44:46.080Z,999.78
2018-03-23T01:45:26.592Z,999.73
2018-03-23T01:46:07.121Z,999.78
2018-03-23T01:46:47.625Z,999.77
2018-03-23T01:47:28.119Z,999.78
2018-03-23T01:48:08.625Z,999.77
2018-03-23T01:48:49.133Z,999.73
2018-03-23T01:49:29.642Z,999.75
2018-03-23T01:50:10.170Z,999.74
2018-03-23T01:50:50.666Z,999.78
2018-03-23T01:51:31.182Z,999.74
2018-03-23T01:52:11.721Z,999.76
2018-03-23T01:52:52.214Z,999.76
2018-03-23T01:53:32.724Z,999.76
2018-03-23T01:54:13.232Z,999.71
2018-03-23T01:54:53.748Z,999.7
2018-03-23T01:55:34.272Z,999.74
2018-03-23T01:56:14.808Z,999.73
2018-03-23T01:56:55.336Z,999.67
2018-03-23T01:57:35.838Z,999.67
2018-03-23T01:58:16.386Z,999.65
2018-03-23T01:58:56.898Z,999.66
2018-03-23T01:59:37.405Z,999.65
2018-03-23T02:00:17.914Z,999.67
2018-03-23T02:00:58.424Z,999.65
2018-03-23T02:01:38.940Z,999.62
2018-03-23T02:02:19.451Z,999.6
2018-03-23T02:02:59.966Z,999.62
2018-03-23T02:03:40.491Z,999.57
2018-03-23T02:04:20.995Z,999.64
2018-03-23T02:05:01.521Z,999.59
2018-03-23T02:05:42.015Z,999.6
2018-03-23T02:06:22.536Z,999.59
2018-03-23T02:07:03.064Z,999.58
2018-03-23T02:07:43.580Z,999.61
2018-03-23T02:08:24.087Z,999.59
2018-03-23T02:09:04.595Z,999.63
2018-03-23T02:09:45.204Z,999.66
2018-03-23T02:10:25.725Z,999.61
2018-03-23T02:11:06.231Z,999.64
2018-03-23T02:11:46.745Z,999.61
2018-03-23T02:12:27.251Z,999.63
2018-03-23T02:13:07.815Z,999.58
2018-03-23T02:13:48.326Z,999.6
2018-03-23T02:14:28.812Z,999.56
2018-03-23T02:15:09.333Z,999.63
2018-03-23T02:15:49.849Z,999.58
2018-03-23T02:16:30.371Z,999.59
2018-03-23T02:17:10.876Z,999.62
2018-03-23T02:17:51.390Z,999.62
2018-03-23T02:18:31.909Z,999.59
2018-03-23T02:19:12.420Z,999.57
2018-03-23T02:19:52.911Z,999.57
2018-03-23T02:20:33.421Z,999.55
2018-03-23T02:21:13.949Z,999.53
2018-03-23T02:21:54.477Z,999.51
2018-03-23T02:22:34.992Z,999.5
2018-03-23T02:23:15.504Z,999.44
2018-03-23T02:23:56.035Z,999.49
2018-03-23T02:24:36.556Z,999.47
2018-03-23T02:25:17.067Z,999.45
2018-03-23T02:25:57.581Z,999.49
2018-03-23T02:26:38.103Z,999.44
2018-03-23T02:27:18.629Z,999.43
2018-03-23T02:27:59.150Z,999.45
2018-03-23T02:28:39.671Z,999.43
2018-03-23T02:29:20.178Z,999.37
2018-03-23T02:30:00.685Z,999.44
2018-03-23T02:30:41.199Z,999.39
2018-03-23T02:31:21.708Z,999.39
2018-03-23T02:32:02.208Z,999.42
2018-03-23T02:32:42.721Z,999.39
2018-03-23T02:33:23.224Z,999.38
2018-03-23T02:34:03.727Z,999.41
2018-03-23T02:34:44.231Z,999.4
2018-03-23T02:35:24.737Z,999.39
2018-03-23T02:36:05.260Z,999.41
2018-03-23T02:36:45.763Z,999.37
2018-03-23T02:37:26.282Z,999.43
2018-03-23T02:38:06.789Z,999.43
2018-03-23T02:38:47.309Z,999.36
2018-03-23T02:39:27.804Z,999.45
2018-03-23T02:40:08.306Z,999.37
2018-03-23T02:40:48.840Z,999.41
2018-03-23T02:41:29.362Z,999.42
2018-03-23T02:42:09.875Z,999.41
2018-03-23T02:42:50.397Z,999.42
2018-03-23T02:43:30.917Z,999.4
2018-03-23T02:44:11.423Z,999.35
2018-03-23T02:44:51.925Z,999.38
2018-03-23T02:45:32.449Z,999.36
2018-03-23T02:46:12.963Z,999.32
2018-03-23T02:46:53.471Z,999.34
2018-03-23T02:47:34.063Z,999.35
2018-03-23T02:48:14.569Z,999.31
2018-03-23T02:48:55.075Z,999.32
2018-03-23T02:49:35.616Z,999.3
2018-03-23T02:50:16.140Z,999.24
2018-03-23T02:50:56.649Z,999.29
2018-03-23T02:51:37.162Z,999.25
2018-03-23T02:52:17.677Z,999.25
2018-03-23T02:52:58.200Z,999.25
2018-03-23T02:53:38.715Z,999.27
2018-03-23T02:54:19.240Z,999.26
2018-03-23T02:54:59.778Z,999.28
2018-03-23T02:55:40.267Z,999.2
2018-03-23T02:56:20.771Z,999.23
2018-03-23T02:57:01.278Z,999.17
2018-03-23T02:57:41.789Z,999.21
2018-03-23T02:58:22.309Z,999.23
2018-03-23T02:59:02.820Z,999.3
2018-03-23T02:59:43.328Z,999.21
2018-03-23T03:00:23.843Z,999.28
2018-03-23T03:01:04.405Z,999.25
2018-03-23T03:01:44.917Z,999.28
2018-03-23T03:02:25.424Z,999.25
2018-03-23T03:03:05.955Z,999.23
2018-03-23T03:03:46.453Z,999.21
2018-03-23T03:04:26.964Z,999.27
2018-03-23T03:05:07.468Z,999.26
2018-03-23T03:05:47.973Z,999.26
2018-03-23T03:06:28.481Z,999.26
2018-03-23T03:07:08.993Z,999.28
2018-03-23T03:07:49.505Z,999.23
2018-03-23T03:08:30.014Z,999.26
2018-03-23T03:09:10.521Z,999.2
2018-03-23T03:09:51.048Z,999.19
2018-03-23T03:10:31.569Z,999.21
2018-03-23T03:11:12.082Z,999.22
2018-03-23T03:11:52.602Z,999.18
2018-03-23T03:12:33.114Z,999.2
2018-03-23T03:13:13.632Z,999.12
2018-03-23T03:13:54.144Z,999.13
2018-03-23T03:14:34.659Z,999.15
2018-03-23T03:15:15.167Z,999.06
2018-03-23T03:15:55.691Z,999.11
2018-03-23T03:16:36.202Z,999.08
2018-03-23T03:17:16.716Z,999.13
2018-03-23T03:17:57.240Z,999.13
2018-03-23T03:18:37.753Z,999.11
2018-03-23T03:19:18.271Z,999.08
2018-03-23T03:19:58.800Z,999.09
2018-03-23T03:20:39.312Z,999.11
2018-03-23T03:21:19.816Z,999.06
2018-03-23T03:22:00.324Z,999.03
2018-03-23T03:22:40.833Z,999.06
2018-03-23T03:23:21.344Z,999.08
2018-03-23T03:24:01.856Z,999.1
2018-03-23T03:24:42.361Z,999.07
2018-03-23T03:25:22.881Z,999.01
2018-03-23T03:26:03.382Z,999.08
2018-03-23T03:26:43.901Z,999.09
2018-03-23T03:27:24.424Z,999.11
2018-03-23T03:28:04.936Z,999.05
2018-03-23T03:28:45.445Z,999.08
2018-03-23T03:29:25.966Z,999.08
2018-03-23T03:30:06.473Z,999.11
2018-03-23T03:30:46.982Z,999.11
2018-03-23T03:31:27.500Z,999.06
2018-03-23T03:32:08.008Z,999.07
2018-03-23T03:32:48.528Z,999.11
2018-03-23T03:33:29.044Z,999.06
2018-03-23T03:34:09.555Z,999
2018-03-23T03:34:50.076Z,999.05
2018-03-23T03:35:30.585Z,998.99
2018-03-23T03:36:11.126Z,999.05
2018-03-23T03:36:51.650Z,999.01
2018-03-23T03:37:32.168Z,999.02
2018-03-23T03:38:12.683Z,998.99
2018-03-23T03:38:53.201Z,998.99
2018-03-23T03:39:33.720Z,998.98
2018-03-23T03:40:14.250Z,998.93
2018-03-23T03:40:54.754Z,999.02
2018-03-23T03:41:35.282Z,998.95
2018-03-23T03:42:15.796Z,999.01
2018-03-23T03:42:56.313Z,999.01
2018-03-23T03:43:36.830Z,998.92
2018-03-23T03:44:17.346Z,998.94
2018-03-23T03:44:57.870Z,998.91
2018-03-23T03:45:38.375Z,998.89
2018-03-23T03:46:18.915Z,998.93
2018-03-23T03:46:59.425Z,998.88
2018-03-23T03:47:39.939Z,998.9
2018-03-23T03:48:20.440Z,998.92
2018-03-23T03:49:00.950Z,998.89
2018-03-23T03:49:41.494Z,998.92
2018-03-23T03:50:22.026Z,998.91
2018-03-23T03:51:02.536Z,998.88
2018-03-23T03:51:43.059Z,998.86
2018-03-23T03:52:23.563Z,998.87
2018-03-23T03:53:04.077Z,998.89
2018-03-23T03:53:44.591Z,998.84
2018-03-23T03:54:25.103Z,998.82
2018-03-23T03:55:05.616Z,998.86
2018-03-23T03:55:46.123Z,998.91
2018-03-23T03:56:26.637Z,998.86
2018-03-23T03:57:07.148Z,998.85
2018-03-23T03:57:47.663Z,998.88
2018-03-23T03:58:28.178Z,998.84
2018-03-23T03:59:08.700Z,998.81
2018-03-23T03:59:49.224Z,998.79
2018-03-23T04:00:29.741Z,998.82
2018-03-23T04:01:10.256Z,998.79
2018-03-23T04:01:50.780Z,998.8
2018-03-23T04:02:31.296Z,998.86
2018-03-23T04:03:11.813Z,998.83
2018-03-23T04:03:52.334Z,998.83
2018-03-23T04:04:32.869Z,998.83
2018-03-23T04:05:13.387Z,998.82
2018-03-23T04:05:53.902Z,998.76
2018-03-23T04:06:34.419Z,998.79
2018-03-23T04:07:14.933Z,998.84
2018-03-23T04:07:55.446Z,998.8
2018-03-23T04:08:35.956Z,998.78
2018-03-23T04:09:16.472Z,998.76
2018-03-23T04:09:56.955Z,998.78
2018-03-23T04:10:37.467Z,998.74
2018-03-23T04:11:17.970Z,998.75
2018-03-23T04:11:58.476Z,998.79
2018-03-23T04:12:38.996Z,998.77
2018-03-23T04:13:19.503Z,998.76
2018-03-23T04:14:00.011Z,998.74
2018-03-23T04:14:40.536Z,998.72
2018-03-23T04:15:21.046Z,998.73
2018-03-23T04:16:01.558Z,998.73
2018-03-23T04:16:42.069Z,998.75
2018-03-23T04:17:22.601Z,998.79
2018-03-23T04:18:03.113Z,998.76
2018-03-23T04:18:43.619Z,998.76
2018-03-23T04:19:24.141Z,998.73
2018-03-23T04:20:04.664Z,998.72
2018-03-23T04:20:45.181Z,998.73
2018-03-23T04:21:25.686Z,998.72
2018-03-23T04:22:06.218Z,998.75
2018-03-23T04:22:46.727Z,998.75
2018-03-23T04:23:27.247Z,998.72
2018-03-23T04:24:07.752Z,998.75
2018-03-23T04:24:48.260Z,998.69
2018-03-23T04:25:28.772Z,998.68
2018-03-23T04:26:09.305Z,998.71
2018-03-23T04:26:49.828Z,998.71
2018-03-23T04:27:30.352Z,998.78
2018-03-23T04:28:10.860Z,998.75
2018-03-23T04:28:51.370Z,998.7
2018-03-23T04:29:31.887Z,998.7
2018-03-23T04:30:12.406Z,998.64
2018-03-23T04:30:52.919Z,998.63
2018-03-23T04:31:33.446Z,998.65
2018-03-23T04:32:13.943Z,998.69
2018-03-23T04:32:54.446Z,998.61
2018-03-23T04:33:34.969Z,998.65
2018-03-23T04:34:15.479Z,998.57
2018-03-23T04:34:56.011Z,998.62
2018-03-23T04:35:36.515Z,998.61
2018-03-23T04:36:17.025Z,998.56
2018-03-23T04:36:57.543Z,998.57
2018-03-23T04:37:38.049Z,998.59
2018-03-23T04:38:18.564Z,998.53
2018-03-23T04:38:59.077Z,998.53
2018-03-23T04:39:39.662Z,998.61
2018-03-23T04:40:20.129Z,998.55
2018-03-23T04:41:00.636Z,998.52
2018-03-23T04:41:41.150Z,998.5
2018-03-23T04:42:21.667Z,998.56
2018-03-23T04:43:02.166Z,998.53
2018-03-23T04:43:42.681Z,998.5
2018-03-23T04:44:23.196Z,998.48
2018-03-23T04:45:03.700Z,998.47
2018-03-23T04:45:44.223Z,998.47
2018-03-23T04:46:24.755Z,998.5
2018-03-23T04:47:05.272Z,998.52
2018-03-23T04:47:45.863Z,998.5
2018-03-23T04:48:26.358Z,998.48
2018-03-23T04:49:06.895Z,998.51
2018-03-23T04:49:47.410Z,998.48
2018-03-23T04:50:27.908Z,998.48
2018-03-23T04:51:08.417Z,998.45
2018-03-23T04:51:48.944Z,998.46
2018-03-23T04:52:29.464Z,998.44
2018-03-23T04:53:09.994Z,998.46
2018-03-23T04:53:50.495Z,998.42
2018-03-23T04:54:31.015Z,998.4
2018-03-23T04:55:11.525Z,998.42
2018-03-23T04:55:52.044Z,998.41
2018-03-23T04:56:32.554Z,998.42
2018-03-23T04:57:13.050Z,998.43
2018-03-23T04:57:53.569Z,998.41
2018-03-23T04:58:34.094Z,998.39
2018-03-23T04:59:14.618Z,998.4
2018-03-23T04:59:55.127Z,998.35
2018-03-23T05:00:35.629Z,998.33
2018-03-23T05:01:16.175Z,998.32
2018-03-23T05:01:56.688Z,998.34
2018-03-23T05:02:37.196Z,998.31
2018-03-23T05:03:17.716Z,998.34
2018-03-23T05:03:58.226Z,998.31
2018-03-23T05:04:38.733Z,998.31
2018-03-23T05:05:19.279Z,998.31
2018-03-23T05:05:59.810Z,998.3
2018-03-23T05:06:40.356Z,998.32
2018-03-23T05:07:20.900Z,998.29
2018-03-23T05:08:01.426Z,998.33
2018-03-23T05:08:41.969Z,998.33
2018-03-23T05:09:22.470Z,998.36
2018-03-23T05:10:03.003Z,998.34
2018-03-23T05:10:43.529Z,998.31
2018-03-23T05:11:24.044Z,998.33
2018-03-23T05:12:04.578Z,998.34
2018-03-23T05:12:45.104Z,998.32
2018-03-23T05:13:25.623Z,998.35
2018-03-23T05:14:06.177Z,998.29
2018-03-23T05:14:46.702Z,998.36
2018-03-23T05:15:27.215Z,998.38
2018-03-23T05:16:07.728Z,998.36
2018-03-23T05:16:48.247Z,998.29
2018-03-23T05:17:28.754Z,998.31
2018-03-23T05:18:09.277Z,998.34
2018-03-23T05:18:49.803Z,998.34
2018-03-23T05:19:30.321Z,998.32
2018-03-23T05:20:10.834Z,998.38
2018-03-23T05:20:51.352Z,998.33
2018-03-23T05:21:31.856Z,998.35
2018-03-23T05:22:12.370Z,998.31
2018-03-23T05:22:52.885Z,998.39
2018-03-23T05:23:33.401Z,998.34
2018-03-23T05:24:13.913Z,998.35
2018-03-23T05:24:54.419Z,998.34
2018-03-23T05:25:34.963Z,998.33
2018-03-23T05:26:15.493Z,998.28
2018-03-23T05:26:56.000Z,998.34
2018-03-23T05:27:36.510Z,998.3
2018-03-23T05:28:17.023Z,998.29
2018-03-23T05:28:57.539Z,998.32
2018-03-23T05:29:38.054Z,998.27
2018-03-23T05:30:18.572Z,998.28
2018-03-23T05:30:59.100Z,998.31
2018-03-23T05:31:39.643Z,998.28
2018-03-23T05:32:20.189Z,998.28
2018-03-23T05:33:00.716Z,998.27
2018-03-23T05:33:41.367Z,998.33
2018-03-23T05:34:21.918Z,998.3
2018-03-23T05:35:02.442Z,998.32
2018-03-23T05:35:42.947Z,998.3
2018-03-23T05:36:23.526Z,998.31
2018-03-23T05:37:03.982Z,998.37
2018-03-23T05:37:44.491Z,998.29
2018-03-23T05:38:25.001Z,998.29
2018-03-23T05:39:05.521Z,998.33
2018-03-23T05:39:46.098Z,998.3
2018-03-23T05:40:26.673Z,998.31
2018-03-23T05:41:07.184Z,998.3
2018-03-23T05:41:47.717Z,998.32
2018-03-23T05:42:28.242Z,998.3
2018-03-23T05:43:08.768Z,998.29
2018-03-23T05:43:49.284Z,998.28
2018-03-23T05:44:29.805Z,998.34
2018-03-23T05:45:10.322Z,998.31
2018-03-23T05:45:50.837Z,998.27
2018-03-23T05:46:31.392Z,998.24
2018-03-23T05:47:11.905Z,998.28
2018-03-23T05:47:52.438Z,998.22
2018-03-23T05:48:32.958Z,998.22
2018-03-23T05:49:13.475Z,998.21
2018-03-23T05:49:54.007Z,998.22
2018-03-23T05:50:34.520Z,998.19
2018-03-23T05:51:15.037Z,998.21
2018-03-23T05:51:55.533Z,998.19
2018-03-23T05:52:36.045Z,998.2
2018-03-23T05:53:16.560Z,998.22
2018-03-23T05:53:57.101Z,998.18
2018-03-23T05:54:37.609Z,998.24
2018-03-23T05:55:18.112Z,998.23
2018-03-23T05:55:58.618Z,998.22
2018-03-23T05:56:39.144Z,998.19
2018-03-23T05:57:19.645Z,998.22
2018-03-23T05:58:00.159Z,998.26
2018-03-23T05:58:40.677Z,998.18
2018-03-23T05:59:21.228Z,998.22
2018-03-23T06:00:01.743Z,998.21
2018-03-23T06:00:42.270Z,998.25
2018-03-23T06:01:22.792Z,998.24
2018-03-23T06:02:03.296Z,998.18
2018-03-23T06:02:43.812Z,998.21
2018-03-23T06:03:24.329Z,998.19
2018-03-23T06:04:04.846Z,998.16
2018-03-23T06:04:45.361Z,998.19
2018-03-23T06:05:25.882Z,998.13
2018-03-23T06:06:06.492Z,998.09
2018-03-23T06:06:47.008Z,998.13
2018-03-23T06:07:27.525Z,998.14
2018-03-23T06:08:08.035Z,998.11
2018-03-23T06:08:48.568Z,998.12
2018-03-23T06:09:29.098Z,998.14
2018-03-23T06:10:09.625Z,998.11
2018-03-23T06:10:50.140Z,998.11
2018-03-23T06:11:30.646Z,998.15
2018-03-23T06:12:11.165Z,998.16
2018-03-23T06:12:51.703Z,998.1
2018-03-23T06:13:32.280Z,998.14
2018-03-23T06:14:12.795Z,998.12
2018-03-23T06:14:53.301Z,998.16
2018-03-23T06:15:33.822Z,998.17
2018-03-23T06:16:14.340Z,998.18
2018-03-23T06:16:54.845Z,998.12
2018-03-23T06:17:35.353Z,998.1
2018-03-23T06:18:15.899Z,998.07
2018-03-23T06:18:56.409Z,998.05
2018-03-23T06:19:36.924Z,998.04
2018-03-23T06:20:17.440Z,998.07
2018-03-23T06:20:57.939Z,998.08
2018-03-23T06:21:38.448Z,998.06
2018-03-23T06:22:18.991Z,998.08
2018-03-23T06:22:59.516Z,998.06
2018-03-23T06:23:40.042Z,998.06
2018-03-23T06:24:20.550Z,998.11
2018-03-23T06:25:01.055Z,998.05
2018-03-23T06:25:41.572Z,998.06
2018-03-23T06:26:22.074Z,998.1
2018-03-23T06:27:02.616Z,998.05
2018-03-23T06:27:43.142Z,998.06
2018-03-23T06:28:23.657Z,998.05
2018-03-23T06:29:04.152Z,998.05
2018-03-23T06:29:44.712Z,998.06
2018-03-23T06:30:25.176Z,998.02
2018-03-23T06:31:05.716Z,998.07
2018-03-23T06:31:46.228Z,998.04
2018-03-23T06:32:26.747Z,998.05
2018-03-23T06:33:07.282Z,998.05
2018-03-23T06:33:47.808Z,998
2018-03-23T06:34:28.313Z,998
2018-03-23T06:35:08.822Z,998.05
2018-03-23T06:35:49.346Z,998.01
2018-03-23T06:36:29.893Z,998.04
2018-03-23T06:37:10.410Z,998.07
2018-03-23T06:37:50.921Z,998.09
2018-03-23T06:38:31.431Z,998.07
2018-03-23T06:39:11.946Z,998.05
2018-03-23T06:39:52.452Z,998.07
2018-03-23T06:40:32.976Z,998.03
2018-03-23T06:41:13.497Z,998.05
2018-03-23T06:41:54.012Z,998.06
2018-03-23T06:42:34.531Z,998.03
2018-03-23T06:43:15.042Z,998.09
2018-03-23T06:43:55.578Z,998.08
2018-03-23T06:44:36.081Z,998.15
2018-03-23T06:45:16.622Z,998.1
2018-03-23T06:45:57.202Z,998.06
2018-03-23T06:46:37.715Z,998.05
2018-03-23T06:47:18.244Z,998.13
2018-03-23T06:47:58.754Z,998.1
2018-03-23T06:48:39.270Z,998.08
2018-03-23T06:49:19.780Z,998.08
2018-03-23T06:50:00.277Z,998.08
2018-03-23T06:50:40.787Z,998.09
2018-03-23T06:51:21.300Z,998.1
2018-03-23T06:52:01.821Z,998.14
2018-03-23T06:52:42.334Z,998.14
2018-03-23T06:53:22.846Z,998.13
2018-03-23T06:54:03.365Z,998.11
2018-03-23T06:54:43.882Z,998.13
2018-03-23T06:55:24.395Z,998.17
2018-03-23T06:56:04.909Z,998.14
2018-03-23T06:56:45.421Z,998.16
2018-03-23T06:57:25.941Z,998.1
2018-03-23T06:58:06.473Z,998.1
2018-03-23T06:58:46.988Z,998.1
2018-03-23T06:59:27.496Z,998.12
2018-03-23T07:00:08.054Z,998.06
2018-03-23T07:00:48.611Z,998.13
2018-03-23T07:01:29.136Z,998.11
2018-03-23T07:02:09.661Z,998.06
2018-03-23T07:02:50.180Z,998.07
2018-03-23T07:03:30.700Z,998.11
2018-03-23T07:04:11.211Z,998.06
2018-03-23T07:04:51.716Z,998.06
2018-03-23T07:05:32.232Z,998.08
2018-03-23T07:06:12.747Z,998.03
2018-03-23T07:06:53.252Z,998.05
2018-03-23T07:07:33.761Z,998.06
2018-03-23T07:08:14.269Z,998.02
2018-03-23T07:08:54.794Z,998.03
2018-03-23T07:09:35.313Z,998.06
2018-03-23T07:10:15.848Z,998.04
2018-03-23T07:10:56.373Z,998.01
2018-03-23T07:11:36.873Z,998.02
2018-03-23T07:12:17.398Z,998.05
2018-03-23T07:12:57.924Z,998.06
2018-03-23T07:13:38.490Z,998.01
2018-03-23T07:14:18.990Z,998.03
2018-03-23T07:14:59.507Z,998.04
2018-03-23T07:15:40.028Z,998.01
2018-03-23T07:16:20.582Z,998.05
2018-03-23T07:17:01.076Z,998.09
2018-03-23T07:17:41.599Z,998.08
2018-03-23T07:18:22.124Z,998.07
2018-03-23T07:19:02.647Z,998.06
2018-03-23T07:19:43.178Z,998.1
2018-03-23T07:20:23.731Z,998.07
2018-03-23T07:21:04.237Z,998.08
2018-03-23T07:21:44.744Z,998.07
2018-03-23T07:22:25.251Z,998.06
2018-03-23T07:23:05.768Z,998.04
2018-03-23T07:23:46.325Z,998.04
2018-03-23T07:24:26.834Z,998.01
2018-03-23T07:25:07.323Z,998.02
2018-03-23T07:25:47.843Z,998.04
2018-03-23T07:26:28.354Z,998.01
2018-03-23T07:27:08.877Z,998.06
2018-03-23T07:27:49.393Z,998.06
2018-03-23T07:28:29.923Z,998.11
2018-03-23T07:29:10.452Z,998.11
2018-03-23T07:29:50.970Z,998.08
2018-03-23T07:30:31.486Z,998.13
2018-03-23T07:31:11.990Z,998.07
2018-03-23T07:31:52.532Z,998.13
2018-03-23T07:32:33.046Z,998.19
2018-03-23T07:33:13.552Z,998.13
2018-03-23T07:33:54.071Z,998.2
2018-03-23T07:34:34.635Z,998.19
2018-03-23T07:35:15.200Z,998.17
2018-03-23T07:35:55.773Z,998.16
2018-03-23T07:36:36.231Z,998.17
2018-03-23T07:37:16.752Z,998.15
2018-03-23T07:37:57.273Z,998.13
2018-03-23T07:38:37.789Z,998.15
2018-03-23T07:39:18.310Z,998.09
2018-03-23T07:39:58.824Z,998.13
2018-03-23T07:40:39.345Z,998.12
2018-03-23T07:41:19.873Z,998.11
2018-03-23T07:42:00.393Z,998.11
2018-03-23T07:42:40.922Z,998.12
2018-03-23T07:43:21.452Z,998.13
2018-03-23T07:44:01.954Z,998.13
2018-03-23T07:44:42.461Z,998.18
2018-03-23T07:45:22.993Z,998.09
2018-03-23T07:46:03.527Z,998.09
2018-03-23T07:46:44.038Z,998.09
2018-03-23T07:47:24.571Z,998.08
2018-03-23T07:48:05.092Z,998.08
2018-03-23T07:48:45.601Z,998.07
2018-03-23T07:49:26.118Z,998.06
2018-03-23T07:50:06.639Z,998.07
2018-03-23T07:50:47.174Z,998.05
2018-03-23T07:51:27.692Z,998.03
2018-03-23T07:52:08.206Z,998.09
2018-03-23T07:52:48.722Z,998.03
2018-03-23T07:53:29.242Z,998
2018-03-23T07:54:09.761Z,998.02
2018-03-23T07:54:50.275Z,998.04
2018-03-23T07:55:30.815Z,998.03
2018-03-23T07:56:11.339Z,998.06
2018-03-23T07:56:51.861Z,998.04
2018-03-23T07:57:32.385Z,998.07
2018-03-23T07:58:12.903Z,998.04
2018-03-23T07:58:53.416Z,998.03
2018-03-23T07:59:33.935Z,998.02
2018-03-23T08:00:14.483Z,998.04
2018-03-23T08:00:55.107Z,998.03
2018-03-23T08:01:35.623Z,997.96
2018-03-23T08:02:16.164Z,997.97
2018-03-23T08:02:56.674Z,997.94
2018-03-23T08:03:37.190Z,997.94
2018-03-23T08:04:17.720Z,997.9
2018-03-23T08:04:58.235Z,997.9
2018-03-23T08:05:38.758Z,997.96
2018-03-23T08:06:19.287Z,997.95
2018-03-23T08:06:59.831Z,998.03
2018-03-23T08:07:40.396Z,997.95
2018-03-23T08:08:20.919Z,997.98
2018-03-23T08:09:01.450Z,997.99
2018-03-23T08:09:41.967Z,997.93
2018-03-23T08:10:22.477Z,997.92
2018-03-23T08:11:03.012Z,997.92
2018-03-23T08:11:43.522Z,997.93
2018-03-23T08:12:24.025Z,997.94
2018-03-23T08:13:04.553Z,997.96
2018-03-23T08:13:45.063Z,997.93
2018-03-23T08:14:25.578Z,997.88
2018-03-23T08:15:06.117Z,997.91
2018-03-23T08:15:46.622Z,997.89
2018-03-23T08:16:27.156Z,997.9
2018-03-23T08:17:07.668Z,997.88
2018-03-23T08:17:48.186Z,997.87
2018-03-23T08:18:28.713Z,997.89
2018-03-23T08:19:09.244Z,997.87
2018-03-23T08:19:49.743Z,997.89
2018-03-23T08:20:30.291Z,997.87
2018-03-23T08:21:10.848Z,997.91
2018-03-23T08:21:51.383Z,997.91
2018-03-23T08:22:31.910Z,997.86
2018-03-23T08:23:12.424Z,997.87
2018-03-23T08:23:52.930Z,997.84
2018-03-23T08:24:33.470Z,997.88